Time;durP1;ratioP1;P1;durP2;ratioP2;P2;SDS_P1;SDS_P2;PMS_P1;PMS_P2;Temp;Humidity;BMP_temperature;BMP_pressure;BME280_temperature;BME280_humidity;BME280_pressure;Samples;Min_cycle;Max_cycle;Signal;HPM_P1;HPM_P2
2021/10/06 00:03:26;;;;;;;0.20;0.20;;;;;;;16.12;46.47;98490.67;115560;1217;137204;-82
2021/10/06 00:06:51;;;;;;;;;;;;;;;;;;;;;
2021/10/06 00:10:20;;;;;;;0.20;0.20;;;;;;;16.03;46.76;98489.48;115567;1218;137461;-83
2021/10/06 00:13:47;;;;;;;0.40;0.40;;;;;;;15.99;46.62;98483.52;115561;1218;137566;-83
2021/10/06 00:17:13;;;;;;;0.10;0.10;;;;;;;15.97;46.74;98490.06;115568;1218;137448;-83
2021/10/06 00:21:00;;;;;;;0.30;0.30;;;;;;;15.96;46.72;98497.63;115567;1216;137283;-83
2021/10/06 00:27:20;;;;;;;0.30;0.30;;;;;;;15.97;46.53;98503.09;115554;1217;152994;-83
2021/10/06 00:30:46;;;;;;;0.30;0.30;;;;;;;15.94;46.63;98508.04;115586;1217;137565;-82
2021/10/06 00:34:13;;;;;;;0.20;0.20;;;;;;;15.91;46.66;98505.14;115522;1217;137713;-82
2021/10/06 00:37:40;;;;;;;0.20;0.20;;;;;;;15.91;46.64;98505.23;115478;1218;137521;-83
2021/10/06 00:41:13;;;;;;;0.10;0.10;;;;;;;15.89;46.57;98502.30;115512;1218;137581;-83
2021/10/06 00:44:40;;;;;;;0.20;0.20;;;;;;;15.88;46.67;98493.50;115446;1218;137506;-83
2021/10/06 00:48:10;;;;;;;0.20;0.20;;;;;;;15.88;46.61;98489.10;115501;1218;137668;-83
2021/10/06 00:51:37;;;;;;;0.20;0.20;;;;;;;15.89;46.65;98493.46;115542;1217;22918;-82
2021/10/06 00:55:13;;;;;;;;;;;;;;;;;;;;;
2021/10/06 01:04:08;;;;;;;0.10;0.10;;;;;;;15.90;47.04;98490.38;115494;1206;137532;-83
2021/10/06 01:06:34;;;;;;;0.20;0.20;;;;;;;15.89;46.87;98489.27;115436;1212;137541;-83
2021/10/06 01:09:01;;;;;;;0.20;0.20;;;;;;;15.91;46.96;98486.92;115413;1218;137640;-84
2021/10/06 01:11:27;;;;;;;0.20;0.20;;;;;;;15.91;46.77;98484.83;115554;1217;22253;-83
2021/10/06 01:13:54;;;;;;;0.00;0.00;;;;;;;15.90;46.93;98484.80;115412;1218;137299;-83
2021/10/06 01:16:21;;;;;;;0.30;0.30;;;;;;;15.89;46.87;98479.98;115484;1215;137488;-82
2021/10/06 01:18:47;;;;;;;0.10;0.10;;;;;;;15.89;46.99;98480.59;115465;1217;138303;-83
2021/10/06 01:21:20;;;;;;;0.20;0.20;;;;;;;15.90;46.72;98478.76;115409;1217;138008;-83
2021/10/06 01:23:47;;;;;;;0.20;0.20;;;;;;;15.90;46.88;98472.24;115511;1212;138114;-83
2021/10/06 01:26:18;;;;;;;0.30;0.30;;;;;;;15.90;46.82;98473.65;115552;1215;22149;-83
2021/10/06 01:28:50;;;;;;;0.20;0.20;;;;;;;15.88;47.16;98468.38;115420;1217;137906;-84
2021/10/06 01:31:16;;;;;;;0.20;0.20;;;;;;;15.85;47.14;98466.50;115471;1214;137743;-84
2021/10/06 01:33:44;;;;;;;0.20;0.20;;;;;;;15.83;47.42;98463.48;115488;1217;137709;-83
2021/10/06 01:36:10;;;;;;;0.20;0.20;;;;;;;15.81;47.73;98465.13;115465;1217;138454;-83
2021/10/06 01:38:35;;;;;;;0.30;0.30;;;;;;;15.79;47.60;98461.52;115522;1216;137674;-83
2021/10/06 01:41:01;;;;;;;0.20;0.20;;;;;;;15.78;47.83;98464.66;115535;1216;22169;-83
2021/10/06 01:43:27;;;;;;;0.20;0.20;;;;;;;15.76;47.93;98464.73;115508;1215;137888;-83
2021/10/06 01:45:53;;;;;;;0.20;0.20;;;;;;;15.75;48.44;98467.64;115478;1218;137757;-82
2021/10/06 01:48:18;;;;;;;0.20;0.20;;;;;;;15.72;48.61;98472.94;115500;1216;137606;-82
2021/10/06 01:50:44;;;;;;;0.20;0.20;;;;;;;15.68;49.19;98470.41;115460;1216;137505;-82
2021/10/06 01:53:12;;;;;;;0.20;0.20;;;;;;;15.65;49.30;98474.23;115589;1217;22367;-81
2021/10/06 01:55:40;;;;;;;0.20;0.20;;;;;;;15.60;49.99;98473.51;115453;1215;138275;-82
2021/10/06 01:58:12;;;;;;;0.20;0.20;;;;;;;15.52;50.71;98474.05;115467;1217;137415;-83
2021/10/06 02:00:39;;;;;;;0.20;0.20;;;;;;;15.47;51.53;98479.25;115362;1218;137354;-84
2021/10/06 02:03:06;;;;;;;0.20;0.20;;;;;;;15.39;51.73;98477.05;115487;1216;138123;-84
2021/10/06 02:05:34;;;;;;;0.10;0.10;;;;;;;15.34;52.20;98479.73;115524;1216;22354;-84
2021/10/06 02:08:01;;;;;;;0.10;0.10;;;;;;;15.28;52.60;98475.84;115442;1203;137293;-84
2021/10/06 02:10:28;;;;;;;0.10;0.10;;;;;;;15.23;52.77;98465.05;115465;1212;137672;-84
2021/10/06 02:12:55;;;;;;;0.10;0.10;;;;;;;15.17;53.68;98458.49;115471;1217;137688;-84
2021/10/06 02:15:20;;;;;;;0.20;0.20;;;;;;;15.11;54.01;98455.69;115467;1217;137886;-85
2021/10/06 02:17:46;;;;;;;0.10;0.10;;;;;;;15.06;53.57;98457.11;115502;1216;137633;-84
2021/10/06 02:20:12;;;;;;;0.20;0.20;;;;;;;14.99;53.74;98455.02;115578;1214;22150;-85
2021/10/06 02:22:42;;;;;;;0.20;0.20;;;;;;;14.93;54.39;98459.56;115527;1217;137056;-85
2021/10/06 02:25:09;;;;;;;0.20;0.20;;;;;;;14.88;54.20;98470.16;115473;1217;137718;-84
2021/10/06 02:27:35;;;;;;;0.10;0.10;;;;;;;14.83;54.52;98473.21;115481;1203;137549;-84
2021/10/06 02:30:03;;;;;;;0.20;0.20;;;;;;;14.76;54.80;98478.42;115450;1212;137542;-85
2021/10/06 02:32:29;;;;;;;0.10;0.10;;;;;;;14.69;54.72;98479.11;115575;1217;22256;-85
2021/10/06 02:34:56;;;;;;;0.10;0.10;;;;;;;14.64;55.06;98481.55;115494;1217;137329;-84
2021/10/06 02:37:21;;;;;;;0.20;0.20;;;;;;;14.61;55.01;98488.11;115459;1218;137358;-85
2021/10/06 02:39:47;;;;;;;0.10;0.10;;;;;;;14.57;55.02;98486.57;115476;1214;137544;-83
2021/10/06 02:42:13;;;;;;;0.10;0.10;;;;;;;14.54;55.26;98489.65;115434;1215;138100;-83
2021/10/06 02:44:40;;;;;;;0.20;0.20;;;;;;;14.52;55.96;98484.82;115449;1216;137666;-83
2021/10/06 02:47:14;;;;;;;0.10;0.10;;;;;;;14.49;56.36;98485.19;115523;1218;22160;-84
2021/10/06 02:49:41;;;;;;;0.10;0.10;;;;;;;14.47;56.83;98480.95;115505;1212;137384;-83
2021/10/06 02:52:07;;;;;;;0.20;0.20;;;;;;;14.44;56.56;98480.65;115474;1217;138017;-84
2021/10/06 02:54:40;;;;;;;0.20;0.20;;;;;;;14.38;57.09;98477.73;115466;1213;137561;-85
2021/10/06 02:57:06;;;;;;;0.10;0.10;;;;;;;14.33;57.57;98472.59;115504;1213;137766;-85
2021/10/06 02:59:33;;;;;;;0.20;0.20;;;;;;;14.27;57.76;98459.75;115496;1218;22136;-84
2021/10/06 03:01:59;;;;;;;0.20;0.20;;;;;;;14.22;57.82;98457.03;115501;1216;137954;-85
2021/10/06 03:05:09;;;;;;;0.10;0.10;;;;;;;14.19;58.24;98466.99;115415;1202;138295;-86
2021/10/06 03:08:14;;;;;;;0.10;0.10;;;;;;;14.17;58.16;98471.77;115504;1218;138232;-86
2021/10/06 03:11:21;;;;;;;0.20;0.20;;;;;;;14.17;58.35;98484.08;115521;1217;137771;-87
2021/10/06 03:14:27;;;;;;;0.10;0.10;;;;;;;14.16;58.47;98475.44;115522;1217;137148;-86
2021/10/06 03:17:13;;;;;;;0.10;0.10;;;;;;;14.11;58.87;98471.08;115521;1217;137380;-86
2021/10/06 03:19:59;;;;;;;0.10;0.10;;;;;;;14.07;58.70;98469.45;115482;1218;137167;-85
2021/10/06 03:22:26;;;;;;;0.10;0.10;;;;;;;14.03;58.88;98472.79;115380;1218;137578;-84
2021/10/06 03:24:52;;;;;;;0.10;0.10;;;;;;;13.99;59.03;98470.77;115524;1215;137450;-84
2021/10/06 03:27:17;;;;;;;0.10;0.10;;;;;;;13.94;59.43;98476.16;115459;1218;137883;-84
2021/10/06 03:29:44;;;;;;;0.10;0.10;;;;;;;13.88;59.83;98478.26;115485;1217;137981;-84
2021/10/06 03:32:10;;;;;;;0.20;0.20;;;;;;;13.83;59.51;98468.38;115626;1217;22297;-83
2021/10/06 03:34:37;;;;;;;0.10;0.10;;;;;;;13.79;59.90;98463.58;115466;1217;137367;-85
2021/10/06 03:37:03;;;;;;;0.20;0.20;;;;;;;13.75;60.46;98459.98;115469;1217;137425;-84
2021/10/06 03:39:29;;;;;;;0.10;0.10;;;;;;;13.68;60.49;98456.48;115478;1218;137262;-84
2021/10/06 03:41:54;;;;;;;0.30;0.30;;;;;;;13.63;60.59;98463.29;115521;1217;138247;-84
2021/10/06 03:44:22;;;;;;;0.10;0.10;;;;;;;13.59;60.64;98464.55;115623;1217;22956;-84
2021/10/06 03:46:47;;;;;;;0.10;0.10;;;;;;;13.61;61.18;98466.61;115491;1217;137783;-83
2021/10/06 03:49:13;;;;;;;0.10;0.10;;;;;;;13.62;61.36;98468.45;115465;1216;137697;-84
2021/10/06 03:51:51;;;;;;;0.20;0.20;;;;;;;13.64;61.38;98471.69;115449;1218;137618;-86
2021/10/06 03:54:17;;;;;;;0.20;0.20;;;;;;;13.63;61.53;98477.60;115493;1216;138066;-85
2021/10/06 03:56:43;;;;;;;0.30;0.30;;;;;;;13.63;61.46;98473.82;115493;1213;137567;-85
2021/10/06 03:59:09;;;;;;;0.10;0.10;;;;;;;13.63;61.39;98471.23;115591;1218;22303;-84
2021/10/06 04:01:35;;;;;;;0.20;0.20;;;;;;;13.62;61.36;98469.81;115499;1218;137168;-84
2021/10/06 04:04:01;;;;;;;0.10;0.10;;;;;;;13.58;61.42;98469.48;115480;1206;137465;-85
2021/10/06 04:06:27;;;;;;;0.10;0.10;;;;;;;13.52;61.57;98470.90;115479;1213;137418;-85
2021/10/06 04:08:53;;;;;;;0.20;0.20;;;;;;;13.46;61.46;98467.73;115412;1218;137416;-85
2021/10/06 04:11:19;;;;;;;0.10;0.10;;;;;;;13.38;61.52;98466.72;115488;1218;22196;-85
2021/10/06 04:13:44;;;;;;;0.10;0.10;;;;;;;13.31;61.59;98467.19;115482;1217;137182;-84
2021/10/06 04:16:09;;;;;;;0.10;0.10;;;;;;;13.25;61.67;98471.19;115480;1218;138098;-85
2021/10/06 04:18:39;;;;;;;0.20;0.20;;;;;;;13.16;62.03;98471.29;115463;1217;137863;-84
2021/10/06 04:21:06;;;;;;;0.10;0.10;;;;;;;13.09;61.94;98461.71;115481;1217;137650;-85
2021/10/06 04:23:33;;;;;;;0.10;0.10;;;;;;;13.04;61.88;98458.33;115616;1217;22295;-87
2021/10/06 04:26:00;;;;;;;0.10;0.10;;;;;;;13.01;62.32;98457.69;115503;1216;137711;-85
2021/10/06 04:28:47;;;;;;;0.20;0.20;;;;;;;12.98;62.74;98468.02;115503;1217;137852;-86
2021/10/06 04:31:13;;;;;;;0.20;0.20;;;;;;;12.95;62.67;98472.66;115470;1217;137586;-85
2021/10/06 04:33:39;;;;;;;0.20;0.20;;;;;;;12.91;62.72;98473.95;115468;1218;137612;-85
2021/10/06 04:36:05;;;;;;;0.10;0.10;;;;;;;12.88;62.60;98462.27;115496;1218;137741;-84
2021/10/06 04:38:31;;;;;;;0.20;0.20;;;;;;;12.80;63.06;98450.26;115612;1213;22992;-85
2021/10/06 04:40:58;;;;;;;0.00;0.00;;;;;;;12.72;63.60;98445.88;115481;1217;137231;-85
2021/10/06 04:43:25;;;;;;;0.20;0.20;;;;;;;12.66;64.02;98452.34;115534;1217;137619;-85
2021/10/06 04:45:51;;;;;;;0.10;0.10;;;;;;;12.63;64.03;98467.41;115476;1217;137435;-85
2021/10/06 04:48:17;;;;;;;0.10;0.10;;;;;;;12.61;64.48;98471.73;115404;1215;137802;-85
2021/10/06 04:51:28;;;;;;;0.10;0.10;;;;;;;12.59;64.89;98470.02;115619;1218;22361;-84
2021/10/06 04:53:55;;;;;;;0.20;0.20;;;;;;;12.59;64.95;98469.64;115506;1217;137448;-85
2021/10/06 04:56:21;;;;;;;0.10;0.10;;;;;;;12.62;65.03;98466.63;115596;1213;22289;-84
2021/10/06 04:58:47;;;;;;;0.10;0.10;;;;;;;12.67;65.69;98463.27;115358;1218;138266;-84
2021/10/06 05:01:13;;;;;;;0.20;0.20;;;;;;;12.72;65.69;98463.80;115467;1212;137493;-85
2021/10/06 05:03:40;;;;;;;0.10;0.10;;;;;;;12.78;65.58;98457.88;115379;1218;137570;-82
2021/10/06 05:06:05;;;;;;;0.10;0.10;;;;;;;12.83;65.46;98453.73;115478;1218;137738;-81
2021/10/06 05:08:33;;;;;;;0.10;0.10;;;;;;;12.84;65.16;98460.27;115495;1218;22133;-80
2021/10/06 05:10:58;;;;;;;0.10;0.10;;;;;;;12.85;65.27;98468.42;115467;1217;137258;-84
2021/10/06 05:13:24;;;;;;;0.10;0.10;;;;;;;12.86;64.91;98478.66;115430;1213;137601;-83
2021/10/06 05:16:33;;;;;;;0.10;0.10;;;;;;;12.84;65.10;98480.60;115532;1217;138157;-85
2021/10/06 05:18:58;;;;;;;0.10;0.10;;;;;;;12.85;65.33;98485.80;115384;1217;138200;-83
2021/10/06 05:21:24;;;;;;;0.10;0.10;;;;;;;12.84;65.20;98490.14;115441;1213;137577;-82
2021/10/06 05:23:49;;;;;;;0.20;0.20;;;;;;;12.81;65.19;98489.14;115451;1213;137410;-83
2021/10/06 05:26:15;;;;;;;0.10;0.10;;;;;;;12.80;65.22;98490.46;115526;1217;22319;-83
2021/10/06 05:28:40;;;;;;;0.10;0.10;;;;;;;12.77;65.39;98495.30;115423;1213;137773;-82
2021/10/06 05:31:06;;;;;;;0.10;0.10;;;;;;;12.77;65.66;98498.61;115440;1213;138489;-82
2021/10/06 05:33:32;;;;;;;0.10;0.10;;;;;;;12.79;65.50;98499.99;115423;1217;138722;-82
2021/10/06 05:35:57;;;;;;;0.10;0.10;;;;;;;12.83;65.67;98496.75;115422;1216;138173;-82
2021/10/06 05:38:23;;;;;;;0.10;0.10;;;;;;;12.87;65.78;98501.71;115490;1217;22354;-82
2021/10/06 05:40:49;;;;;;;0.30;0.30;;;;;;;12.89;65.78;98504.83;115435;1217;137895;-86
2021/10/06 05:43:15;;;;;;;0.20;0.20;;;;;;;12.92;65.62;98502.45;115420;1213;137303;-83
2021/10/06 05:45:41;;;;;;;0.10;0.10;;;;;;;12.95;65.69;98500.98;115445;1216;137606;-83
2021/10/06 05:48:08;;;;;;;0.20;0.20;;;;;;;12.97;65.67;98500.70;115456;1217;138243;-83
2021/10/06 05:50:34;;;;;;;0.20;0.20;;;;;;;12.99;65.54;98510.10;115610;1217;22267;-83
2021/10/06 05:53:03;;;;;;;0.10;0.10;;;;;;;12.99;65.36;98517.38;115410;1217;137276;-83
2021/10/06 05:55:29;;;;;;;0.10;0.10;;;;;;;13.00;65.43;98523.14;115478;1217;137648;-83
2021/10/06 05:57:55;;;;;;;0.20;0.20;;;;;;;13.01;65.51;98523.27;115488;1212;138156;-83
2021/10/06 06:00:22;;;;;;;0.20;0.20;;;;;;;13.01;65.49;98526.42;115526;1213;137425;-83
2021/10/06 06:02:49;;;;;;;0.10;0.10;;;;;;;13.00;65.58;98525.81;115366;1218;137636;-83
2021/10/06 06:05:18;;;;;;;0.20;0.20;;;;;;;12.98;65.32;98523.36;115596;1217;22294;-84
2021/10/06 06:07:45;;;;;;;0.10;0.10;;;;;;;12.97;65.61;98525.40;115500;1213;137554;-83
2021/10/06 06:10:13;;;;;;;0.20;0.20;;;;;;;12.96;65.49;98529.60;115362;1218;137568;-83
2021/10/06 06:12:42;;;;;;;0.10;0.10;;;;;;;12.98;65.27;98532.85;115376;1217;138290;-83
2021/10/06 06:15:09;;;;;;;0.10;0.10;;;;;;;13.02;65.38;98534.34;115366;1212;138511;-83
2021/10/06 06:17:37;;;;;;;0.10;0.10;;;;;;;13.10;65.48;98535.59;115507;1218;22298;-83
2021/10/06 06:20:09;;;;;;;0.10;0.10;;;;;;;13.16;65.31;98531.53;115604;1213;23243;-83
2021/10/06 06:22:35;;;;;;;0.10;0.10;;;;;;;13.20;65.31;98531.69;115472;1217;137305;-85
2021/10/06 06:25:03;;;;;;;0.10;0.10;;;;;;;13.23;65.34;98530.36;115512;1216;137687;-86
2021/10/06 06:27:36;;;;;;;0.10;0.10;;;;;;;13.26;64.93;98533.07;115490;1211;138055;-85
2021/10/06 06:30:04;;;;;;;0.10;0.10;;;;;;;13.28;65.22;98534.27;115445;1217;137671;-85
2021/10/06 06:32:53;;;;;;;0.10;0.10;;;;;;;13.29;64.91;98541.90;115547;1217;22228;-87
2021/10/06 06:35:39;;;;;;;0.10;0.10;;;;;;;13.29;65.01;98540.21;115486;1217;137841;-86
2021/10/06 06:38:47;;;;;;;0.10;0.10;;;;;;;13.32;64.84;98543.10;115600;1217;22396;-87
2021/10/06 06:41:40;;;;;;;0.10;0.10;;;;;;;13.30;64.61;98550.14;115510;1217;138055;-88
2021/10/06 06:44:14;;;;;;;0.20;0.20;;;;;;;13.27;64.48;98551.55;115634;1212;22179;-86
2021/10/06 06:46:43;;;;;;;;;;;;;;;13.29;64.55;98549.25;115511;1217;138171;-86
2021/10/06 06:49:09;;;;;;;0.10;0.10;;;;;;;13.34;64.71;98544.55;115521;1218;124610;-85
2021/10/06 06:51:35;;;;;;;0.20;0.20;;;;;;;13.38;64.50;98546.58;115488;1211;138056;-84
2021/10/06 06:54:05;;;;;;;0.20;0.20;;;;;;;13.43;64.35;98544.55;115561;1217;137476;-87
2021/10/06 06:56:32;;;;;;;0.10;0.10;;;;;;;13.48;64.23;98552.90;115617;1217;22124;-85
2021/10/06 06:59:21;;;;;;;0.10;0.10;;;;;;;13.52;64.23;98555.70;115467;1216;136982;-86
2021/10/06 07:02:28;;;;;;;0.10;0.10;;;;;;;13.57;64.35;98557.05;115514;1217;137800;-86
2021/10/06 07:04:53;;;;;;;0.10;0.10;;;;;;;13.61;64.06;98560.00;115513;1217;137472;-85
2021/10/06 07:07:19;;;;;;;0.10;0.10;;;;;;;13.61;63.98;98564.58;115488;1218;137695;-86
2021/10/06 07:09:48;;;;;;;0.10;0.10;;;;;;;13.63;63.95;98568.37;115501;1213;137548;-86
2021/10/06 07:12:54;;;;;;;0.20;0.20;;;;;;;13.66;64.15;98567.16;115526;1217;137661;-88
2021/10/06 07:16:20;;;;;;;0.20;0.20;;;;;;;13.67;63.65;98568.73;115514;1217;137259;-87
2021/10/06 07:19:49;;;;;;;0.10;0.10;;;;;;;13.70;63.93;98570.24;115517;1217;137254;-87
2021/10/06 07:22:55;;;;;;;0.10;0.10;;;;;;;13.73;63.40;98574.33;115515;1217;137384;-86
2021/10/06 07:26:02;;;;;;;0.10;0.10;;;;;;;13.71;62.79;98577.02;115488;1213;137320;-88
2021/10/06 07:29:13;;;;;;;0.10;0.10;;;;;;;13.63;62.65;98576.64;115491;1213;138229;-87
2021/10/06 07:32:36;;;;;;;0.10;0.10;;;;;;;13.58;62.87;98578.28;115519;1217;138091;-87
2021/10/06 07:36:01;;;;;;;0.10;0.10;;;;;;;13.58;63.06;98582.58;115644;1217;22318;-87
2021/10/06 07:39:27;;;;;;;0.20;0.20;;;;;;;13.55;62.86;98586.17;115539;1217;136879;-86
2021/10/06 07:42:55;;;;;;;0.10;0.10;;;;;;;13.50;62.79;98584.67;115559;1217;137632;-87
2021/10/06 07:45:50;;;;;;;0.10;0.10;;;;;;;13.45;62.61;98584.02;115515;1213;137340;-86
2021/10/06 07:48:38;;;;;;;0.10;0.10;;;;;;;13.38;62.47;98586.02;115530;1217;137457;-85
2021/10/06 07:51:59;;;;;;;0.10;0.10;;;;;;;13.32;62.42;98584.91;115544;1213;137618;-87
2021/10/06 07:55:12;;;;;;;0.10;0.10;;;;;;;13.24;62.33;98583.70;115499;1213;137348;-86
2021/10/06 07:57:42;;;;;;;0.10;0.10;;;;;;;13.15;62.42;98586.65;115505;1216;137393;-86
2021/10/06 08:00:10;;;;;;;0.10;0.10;;;;;;;13.07;62.26;98577.42;115532;1210;138015;-85
2021/10/06 08:03:17;;;;;;;0.10;0.10;;;;;;;12.99;62.19;98577.46;115474;1216;137405;-87
2021/10/06 08:06:14;;;;;;;0.10;0.10;;;;;;;12.88;62.29;98572.34;115494;1217;137474;-86
2021/10/06 08:09:05;;;;;;;0.20;0.20;;;;;;;12.82;62.48;98569.36;115505;1217;137464;-85
2021/10/06 08:12:00;;;;;;;0.10;0.10;;;;;;;12.74;62.67;98569.80;115517;1217;137621;-86
2021/10/06 08:15:28;;;;;;;0.10;0.10;;;;;;;12.71;62.96;98563.42;115518;1217;138129;-87
2021/10/06 08:18:53;;;;;;;0.10;0.10;;;;;;;12.74;63.28;98566.48;115493;1217;138006;-87
2021/10/06 08:22:08;;;;;;;0.10;0.10;;;;;;;12.76;63.25;98568.47;115548;1217;137299;-88
